Time;durP1;ratioP1;P1;durP2;ratioP2;P2;SDS_P1;SDS_P2;PMS_P1;PMS_P2;Temp;Humidity;BMP_temperature;BMP_pressure;BME280_temperature;BME280_humidity;BME280_pressure;Samples;Min_cycle;Max_cycle;Signal;HPM_P1;HPM_P2
2022/11/30 00:03:22;;;;;;;37.47;17.23;;;;;5.70;101720.00;;;;9836709;30;20232;-77
2022/11/30 00:08:28;;;;;;;38.03;17.50;;;;;5.80;101726.00;;;;9851631;30;20212;-77
2022/11/30 00:13:29;;;;;;;37.03;17.57;;;;;5.80;101726.00;;;;9866439;30;20239;-77
2022/11/30 00:18:31;;;;;;;45.00;17.87;;;;;5.80;101715.00;;;;9867260;30;20227;-77
2022/11/30 00:23:36;;;;;;;38.23;16.30;;;;;5.80;101716.00;;;;9851736;30;20569;-77
2022/11/30 00:28:38;;;;;;;47.77;17.17;;;;;5.80;101725.00;;;;9851091;30;20201;-77
2022/11/30 00:33:41;;;;;;;43.43;17.23;;;;;5.80;101735.00;;;;9866222;30;20216;-77
2022/11/30 00:38:43;;;;;;;44.93;17.50;;;;;5.80;101724.00;;;;9865933;30;20196;-77
2022/11/30 00:43:45;;;;;;;37.60;16.23;;;;;5.80;101729.00;;;;9865515;30;20204;-77
2022/11/30 00:48:47;;;;;;;49.60;16.07;;;;;5.80;101730.00;;;;9867129;30;20228;-76
2022/11/30 00:53:49;;;;;;;45.10;16.40;;;;;5.80;101732.00;;;;9829136;30;20244;-77
2022/11/30 00:58:51;;;;;;;49.53;17.10;;;;;5.80;101725.00;;;;9839508;30;20209;-77
2022/11/30 01:03:53;;;;;;;40.70;14.57;;;;;5.80;101728.00;;;;9850168;30;20266;-77
2022/11/30 01:08:55;;;;;;;39.17;14.40;;;;;5.80;101720.00;;;;9879756;30;20262;-77
2022/11/30 01:13:59;;;;;;;34.63;13.23;;;;;5.70;101719.00;;;;9864215;30;20308;-77
2022/11/30 01:19:01;;;;;;;41.63;15.10;;;;;5.70;101717.00;;;;9879824;30;20197;-77
2022/11/30 01:24:03;;;;;;;39.07;14.43;;;;;5.70;101719.00;;;;9849526;30;20207;-77
2022/11/30 01:29:05;;;;;;;33.90;14.57;;;;;5.60;101723.00;;;;9854673;30;20204;-77
2022/11/30 01:34:06;;;;;;;29.23;12.40;;;;;5.60;101727.00;;;;9835247;30;20743;-77
2022/11/30 01:39:08;;;;;;;40.07;13.43;;;;;5.60;101729.00;;;;9842056;30;20213;-77
2022/11/30 01:44:13;;;;;;;29.67;11.73;;;;;5.60;101723.00;;;;9849287;30;20242;-77
2022/11/30 01:49:26;;;;;;;33.33;12.57;;;;;5.60;101730.00;;;;9846872;30;20249;-77
2022/11/30 01:54:32;;;;;;;38.47;14.13;;;;;5.60;101731.00;;;;9827406;30;20232;-77
2022/11/30 01:59:34;;;;;;;37.37;12.97;;;;;5.70;101736.00;;;;9870480;30;20251;-77
2022/11/30 02:04:37;;;;;;;41.50;14.13;;;;;5.70;101734.00;;;;9848830;30;20196;-77
2022/11/30 02:09:44;;;;;;;30.90;13.70;;;;;5.70;101742.00;;;;9863660;30;20226;-77
2022/11/30 02:14:51;;;;;;;34.43;13.07;;;;;5.70;101740.00;;;;9863179;30;20259;-77
2022/11/30 02:20:25;;;;;;;40.40;13.80;;;;;5.70;101751.00;;;;9848282;30;20291;-77
2022/11/30 02:25:51;;;;;;;28.03;11.83;;;;;5.70;101744.00;;;;9848540;30;20622;-77
2022/11/30 02:30:55;;;;;;;53.10;15.27;;;;;5.70;101740.00;;;;9863562;30;20211;-77
2022/11/30 02:35:59;;;;;;;50.50;16.23;;;;;5.80;101743.00;;;;9869390;30;20212;-77
2022/11/30 02:41:02;;;;;;;50.90;16.53;;;;;5.70;101743.00;;;;9870393;30;20211;-77
2022/11/30 02:46:19;;;;;;;47.13;16.43;;;;;5.70;101739.00;;;;9854456;30;20205;-77
2022/11/30 02:51:25;;;;;;;41.37;15.63;;;;;5.70;101736.00;;;;9869917;30;20679;-77
2022/11/30 02:56:27;;;;;;;43.87;15.00;;;;;5.70;101739.00;;;;9855132;30;20232;-77
2022/11/30 03:01:29;;;;;;;45.40;16.30;;;;;5.80;101745.00;;;;9854430;30;20236;-77
2022/11/30 03:06:30;;;;;;;50.37;16.30;;;;;5.70;101736.00;;;;9854358;30;20223;-77
2022/11/30 03:11:32;;;;;;;59.47;20.30;;;;;5.80;101734.00;;;;9869357;30;20246;-77
2022/11/30 03:16:36;;;;;;;59.53;18.90;;;;;5.80;101737.00;;;;9867917;30;20916;-77
2022/11/30 03:21:38;;;;;;;56.73;18.07;;;;;5.80;101756.00;;;;9853490;30;20233;-77
2022/11/30 03:26:40;;;;;;;53.23;17.20;;;;;5.80;101755.00;;;;9868756;30;20719;-77
2022/11/30 03:31:42;;;;;;;51.03;16.10;;;;;5.90;101748.00;;;;9868875;30;20200;-77
2022/11/30 03:36:44;;;;;;;44.43;15.67;;;;;5.90;101749.00;;;;9868910;30;20217;-77
2022/11/30 03:41:46;;;;;;;53.63;17.00;;;;;5.80;101759.00;;;;9835350;30;20212;-77
2022/11/30 03:46:48;;;;;;;48.80;17.37;;;;;5.80;101748.00;;;;9868420;30;20196;-77
2022/11/30 03:51:50;;;;;;;48.30;17.77;;;;;5.70;101749.00;;;;9837752;30;20200;-77
2022/11/30 03:56:52;;;;;;;46.03;17.67;;;;;5.60;101749.00;;;;9837866;30;20927;-77
2022/11/30 04:01:53;;;;;;;53.03;17.80;;;;;5.60;101742.00;;;;9852660;30;20228;-77
2022/11/30 04:06:55;;;;;;;56.27;17.87;;;;;5.70;101751.00;;;;9851572;30;20204;-77
2022/11/30 04:11:57;;;;;;;45.67;17.13;;;;;5.60;101738.00;;;;9882130;30;20666;-77
2022/11/30 04:16:59;;;;;;;50.10;18.37;;;;;5.60;101744.00;;;;9852304;30;20703;-77
2022/11/30 04:22:01;;;;;;;41.33;16.63;;;;;5.60;101754.00;;;;9858893;30;20236;-77
2022/11/30 04:27:03;;;;;;;43.53;17.20;;;;;5.50;101752.00;;;;9851574;30;20607;-76
2022/11/30 04:32:05;;;;;;;51.90;17.20;;;;;5.40;101756.00;;;;9837099;30;20211;-77
2022/11/30 04:37:07;;;;;;;45.80;16.50;;;;;5.30;101754.00;;;;9836021;30;20216;-77
2022/11/30 04:42:08;;;;;;;58.23;18.00;;;;;5.40;101768.00;;;;9866060;30;20672;-77
2022/11/30 04:47:10;;;;;;;52.07;18.40;;;;;5.40;101765.00;;;;9851404;30;20196;-77
2022/11/30 04:52:12;;;;;;;62.67;19.53;;;;;5.40;101769.00;;;;9851018;30;20200;-77
2022/11/30 04:57:14;;;;;;;62.43;18.83;;;;;5.50;101763.00;;;;9850670;30;20216;-78
2022/11/30 05:02:16;;;;;;;49.17;16.40;;;;;5.40;101769.00;;;;9865633;30;20697;-77
2022/11/30 05:07:18;;;;;;;57.87;17.63;;;;;5.40;101768.00;;;;9864531;30;20197;-77
2022/11/30 05:12:20;;;;;;;60.97;17.93;;;;;5.30;101777.00;;;;9864976;30;20212;-77
2022/11/30 05:17:22;;;;;;;57.67;19.80;;;;;5.20;101776.00;;;;9864482;30;20327;-77
2022/11/30 05:22:23;;;;;;;59.07;17.30;;;;;5.20;101778.00;;;;9843273;30;20713;-77
2022/11/30 05:27:25;;;;;;;37.53;14.33;;;;;5.10;101775.00;;;;9849566;30;20666;-77
2022/11/30 05:32:27;;;;;;;45.53;15.70;;;;;5.10;101766.00;;;;9864722;30;20212;-77
2022/11/30 05:37:29;;;;;;;47.37;14.27;;;;;5.10;101767.00;;;;9864710;30;20262;-76
2022/11/30 05:42:31;;;;;;;40.07;14.07;;;;;5.10;101768.00;;;;9861214;30;20209;-77
2022/11/30 05:47:33;;;;;;;40.07;14.20;;;;;5.00;101777.00;;;;9847189;30;20679;-77
2022/11/30 05:52:34;;;;;;;44.43;13.77;;;;;5.00;101780.00;;;;9845798;30;20208;-77
2022/11/30 05:57:37;;;;;;;41.63;13.53;;;;;5.00;101790.00;;;;9862344;30;20592;-77
2022/11/30 06:02:39;;;;;;;41.93;12.33;;;;;5.00;101781.00;;;;9861721;30;20712;-77
2022/11/30 06:07:41;;;;;;;38.37;11.87;;;;;5.00;101787.00;;;;9847049;30;20288;-77
2022/11/30 06:12:43;;;;;;;38.70;12.30;;;;;4.90;101789.00;;;;9826823;30;20285;-77
2022/11/30 06:17:45;;;;;;;43.90;13.17;;;;;4.90;101790.00;;;;9817614;30;20216;-78
2022/11/30 06:22:47;;;;;;;46.10;12.60;;;;;5.00;101797.00;;;;9862402;30;20201;-78
2022/11/30 06:27:48;;;;;;;38.83;11.40;;;;;4.90;101800.00;;;;9848490;30;20656;-77
2022/11/30 06:32:52;;;;;;;43.80;12.97;;;;;4.90;101799.00;;;;9848531;30;20219;-77
2022/11/30 06:37:54;;;;;;;40.73;13.50;;;;;5.00;101794.00;;;;9862514;30;20235;-77
2022/11/30 06:42:55;;;;;;;38.07;13.47;;;;;5.00;101797.00;;;;9863651;29;20771;-77
2022/11/30 06:47:57;;;;;;;39.60;13.17;;;;;5.00;101810.00;;;;9877648;30;20662;-78
2022/11/30 06:52:59;;;;;;;37.57;13.67;;;;;5.00;101812.00;;;;9862996;30;20692;-77
2022/11/30 06:58:06;;;;;;;44.63;13.60;;;;;5.00;101816.00;;;;9861965;30;20213;-78
2022/11/30 07:03:10;;;;;;;44.03;14.10;;;;;4.90;101822.00;;;;9833082;30;20236;-77
2022/11/30 07:08:15;;;;;;;33.43;13.03;;;;;4.90;101820.00;;;;9855342;30;20246;-77
2022/11/30 07:13:18;;;;;;;39.10;12.57;;;;;4.80;101822.00;;;;9862502;30;20586;-77
2022/11/30 07:18:20;;;;;;;42.70;14.23;;;;;4.80;101827.00;;;;9864968;30;20685;-77
2022/11/30 07:28:53;;;;;;;42.60;14.20;;;;;4.90;101833.00;;;;9868615;30;20200;-78
2022/11/30 07:33:57;;;;;;;41.37;14.60;;;;;4.90;101840.00;;;;9853751;30;20251;-77
2022/11/30 07:38:59;;;;;;;49.43;16.70;;;;;4.90;101845.00;;;;9867995;30;20765;-77
2022/11/30 07:44:06;;;;;;;48.83;15.43;;;;;4.90;101846.00;;;;9868067;30;20254;-77
2022/11/30 07:49:09;;;;;;;43.03;13.97;;;;;5.00;101851.00;;;;9838717;30;20538;-77
2022/11/30 07:54:11;;;;;;;44.93;15.47;;;;;5.00;101854.00;;;;9866683;30;20220;-77
2022/11/30 07:59:12;;;;;;;42.70;13.27;;;;;5.00;101856.00;;;;9867738;30;20220;-77
2022/11/30 08:04:14;;;;;;;46.47;15.20;;;;;5.00;101870.00;;;;9861366;30;20229;-77
2022/11/30 08:09:17;;;;;;;46.90;15.30;;;;;5.00;101874.00;;;;9849103;30;20211;-77
2022/11/30 08:14:21;;;;;;;46.03;14.43;;;;;5.00;101888.00;;;;9852066;30;20295;-77
2022/11/30 08:19:23;;;;;;;47.47;15.47;;;;;5.00;101900.00;;;;9860234;30;20592;-77
2022/11/30 08:24:25;;;;;;;54.13;15.53;;;;;5.00;101893.00;;;;9857929;30;20200;-77
2022/11/30 08:29:27;;;;;;;40.67;14.30;;;;;5.10;101895.00;;;;9834410;30;20193;-77
2022/11/30 08:34:29;;;;;;;41.20;15.10;;;;;5.20;101894.00;;;;9847813;30;20208;-77
2022/11/30 08:39:33;;;;;;;38.07;14.90;;;;;5.30;101908.00;;;;9851627;30;20741;-77
2022/11/30 08:44:35;;;;;;;50.00;16.53;;;;;5.40;101903.00;;;;9844740;30;20231;-78
2022/11/30 08:49:37;;;;;;;53.33;14.73;;;;;5.50;101902.00;;;;9848927;30;20197;-77
2022/11/30 08:54:44;;;;;;;43.47;16.37;;;;;5.50;101911.00;;;;9819918;30;20224;-77
2022/11/30 08:59:47;;;;;;;46.27;15.90;;;;;5.50;101907.00;;;;9848917;30;20588;-77
2022/11/30 09:04:50;;;;;;;44.23;17.70;;;;;5.70;101901.00;;;;9877745;30;20254;-77
2022/11/30 09:09:52;;;;;;;47.63;17.50;;;;;5.80;101907.00;;;;9849777;30;20631;-77
2022/11/30 09:14:54;;;;;;;43.70;16.13;;;;;5.80;101918.00;;;;9841056;30;20215;-77
2022/11/30 09:20:00;;;;;;;48.40;19.07;;;;;5.90;101925.00;;;;9834833;30;20211;-77
2022/11/30 09:25:01;;;;;;;50.17;17.43;;;;;6.00;101925.00;;;;9848063;30;20203;-77
2022/11/30 09:30:04;;;;;;;35.17;13.53;;;;;6.10;101924.00;;;;9862881;30;20222;-77
2022/11/30 09:35:06;;;;;;;98.87;51.17;;;;;6.10;101928.00;;;;9836871;30;20220;-77
2022/11/30 09:40:16;;;;;;;50.00;19.93;;;;;6.00;101926.00;;;;9835328;30;20208;-77
2022/11/30 09:45:29;;;;;;;468.00;198.63;;;;;6.10;101936.00;;;;9856876;30;20195;-77
2022/11/30 09:50:38;;;;;;;49.13;18.77;;;;;6.20;101932.00;;;;9843920;30;20216;-76
2022/11/30 09:55:42;;;;;;;61.13;23.50;;;;;6.30;101925.00;;;;9858689;30;20247;-77
2022/11/30 10:00:43;;;;;;;67.70;21.90;;;;;6.50;101932.00;;;;9860173;30;20255;-77
2022/11/30 10:06:05;;;;;;;57.33;22.43;;;;;6.60;101928.00;;;;9860304;30;20200;-77
2022/11/30 10:11:19;;;;;;;52.40;16.80;;;;;6.60;101935.00;;;;9859744;30;20228;-78
2022/11/30 10:16:52;;;;;;;52.90;21.33;;;;;6.40;101934.00;;;;9830529;30;20216;-77
2022/11/30 10:22:12;;;;;;;46.77;17.00;;;;;6.50;101934.00;;;;9874658;30;20188;-78
2022/11/30 10:27:17;;;;;;;45.43;18.27;;;;;6.90;101928.00;;;;9860083;30;20200;-78
2022/11/30 10:32:26;;;;;;;54.20;19.13;;;;;6.80;101928.00;;;;9844611;30;20199;-77
2022/11/30 10:37:34;;;;;;;53.47;17.40;;;;;6.90;101929.00;;;;9833581;30;20208;-77
2022/11/30 10:42:51;;;;;;;48.63;18.70;;;;;7.20;101922.00;;;;9847712;30;20211;-76
2022/11/30 10:48:06;;;;;;;48.60;20.10;;;;;7.10;101920.00;;;;9856258;30;20747;-78
2022/11/30 10:53:10;;;;;;;47.77;17.97;;;;;7.00;101920.00;;;;9850783;30;20192;-77
2022/11/30 10:58:21;;;;;;;49.20;18.37;;;;;7.20;101914.00;;;;9868786;30;20207;-78
2022/11/30 11:03:25;;;;;;;45.10;18.93;;;;;7.40;101913.00;;;;9868109;30;20232;-78
2022/11/30 11:08:27;;;;;;;41.40;17.27;;;;;7.20;101913.00;;;;9854535;30;20730;-77
2022/11/30 11:13:37;;;;;;;44.63;18.87;;;;;7.00;101916.00;;;;9834078;30;20197;-78
2022/11/30 11:18:56;;;;;;;45.97;19.13;;;;;7.00;101916.00;;;;9865250;30;20287;-77
2022/11/30 11:23:58;;;;;;;46.63;19.67;;;;;7.00;101905.00;;;;9853652;30;20204;-77
2022/11/30 11:29:00;;;;;;;42.03;18.63;;;;;6.90;101927.00;;;;9838916;30;20196;-77
2022/11/30 11:34:03;;;;;;;48.70;19.20;;;;;7.00;101917.00;;;;9867578;30;20205;-77
2022/11/30 11:39:24;;;;;;;53.83;20.43;;;;;7.10;101920.00;;;;9867582;30;20648;-78
2022/11/30 11:44:26;;;;;;;56.57;20.47;;;;;7.40;101910.00;;;;9852833;30;20665;-77
2022/11/30 11:49:32;;;;;;;52.13;20.60;;;;;7.60;101912.00;;;;9859694;30;20615;-78
2022/11/30 11:54:46;;;;;;;46.63;19.63;;;;;7.50;101919.00;;;;9871765;30;20219;-78
2022/11/30 12:00:00;;;;;;;49.97;19.13;;;;;7.70;101904.00;;;;9851984;30;20254;-78
2022/11/30 12:05:14;;;;;;;52.03;20.23;;;;;7.90;101902.00;;;;9863361;30;20207;-78
2022/11/30 12:10:25;;;;;;;49.40;20.00;;;;;7.80;101906.00;;;;9862941;30;20205;-78
2022/11/30 12:16:09;;;;;;;47.90;19.23;;;;;7.90;101898.00;;;;9846880;30;20299;-78
2022/11/30 12:21:20;;;;;;;49.57;20.93;;;;;8.10;101896.00;;;;9868609;30;20228;-78
2022/11/30 12:26:37;;;;;;;55.10;22.87;;;;;8.20;101903.00;;;;9840983;30;20197;-78
2022/11/30 12:31:44;;;;;;;49.00;21.47;;;;;8.40;101904.00;;;;9833429;30;20207;-78
2022/11/30 12:37:24;;;;;;;52.17;20.17;;;;;8.50;101911.00;;;;9848581;30;20216;-78
2022/11/30 12:42:46;;;;;;;54.03;22.47;;;;;8.50;101905.00;;;;9833688;30;20211;-78
2022/11/30 12:47:54;;;;;;;52.00;21.93;;;;;8.60;101904.00;;;;9829318;30;20224;-78
2022/11/30 12:53:27;;;;;;;53.00;21.47;;;;;8.60;101905.00;;;;9833664;30;20682;-78
2022/11/30 12:58:34;;;;;;;48.27;21.40;;;;;8.60;101899.00;;;;9841432;30;20219;-78
2022/11/30 13:03:44;;;;;;;51.77;21.13;;;;;8.60;101903.00;;;;9850474;30;20781;-78
2022/11/30 13:08:52;;;;;;;45.90;20.13;;;;;8.60;101903.00;;;;9857232;30;20197;-78
2022/11/30 13:13:57;;;;;;;52.73;21.40;;;;;8.50;101908.00;;;;9825295;30;20204;-78
2022/11/30 13:19:24;;;;;;;53.13;21.73;;;;;8.40;101902.00;;;;9858879;30;20216;-78
2022/11/30 13:24:51;;;;;;;56.30;23.17;;;;;8.40;101907.00;;;;9847375;30;20257;-78
2022/11/30 13:30:05;;;;;;;47.73;21.77;;;;;8.40;101911.00;;;;9859848;30;20207;-78
2022/11/30 13:35:26;;;;;;;47.87;21.37;;;;;8.30;101910.00;;;;9877310;30;20214;-78
2022/11/30 13:40:28;;;;;;;53.57;22.37;;;;;8.10;101920.00;;;;9831067;30;20204;-78
2022/11/30 13:45:32;;;;;;;54.80;23.67;;;;;8.20;101926.00;;;;9833456;30;20586;-78
2022/11/30 13:50:38;;;;;;;55.77;23.97;;;;;8.20;101926.00;;;;9837961;30;20208;-77
2022/11/30 13:55:40;;;;;;;52.47;22.77;;;;;8.10;101917.00;;;;9846363;30;20224;-78
2022/11/30 14:00:46;;;;;;;53.77;22.57;;;;;8.10;101914.00;;;;9863729;30;20747;-78
2022/11/30 14:05:59;;;;;;;50.53;21.73;;;;;8.00;101922.00;;;;9804043;30;20263;-78
2022/11/30 14:11:39;;;;;;;49.23;22.00;;;;;7.70;101935.00;;;;9847153;30;20713;-78
2022/11/30 14:16:41;;;;;;;50.60;21.27;;;;;7.70;101955.00;;;;9841181;30;20263;-78
2022/11/30 14:21:43;;;;;;;55.07;22.73;;;;;7.60;101949.00;;;;9843937;30;20287;-78
2022/11/30 14:26:48;;;;;;;51.50;21.80;;;;;7.60;101946.00;;;;9833203;30;20196;-78
2022/11/30 14:32:00;;;;;;;48.87;21.47;;;;;7.60;101945.00;;;;9840139;30;20261;-78
2022/11/30 14:37:11;;;;;;;50.73;21.70;;;;;7.50;101941.00;;;;9852614;30;20622;-78
2022/11/30 14:42:24;;;;;;;58.83;23.80;;;;;7.50;101948.00;;;;9838973;30;20751;-78
2022/11/30 14:47:28;;;;;;;55.70;22.50;;;;;7.40;101953.00;;;;9849275;30;20199;-78
2022/11/30 14:52:51;;;;;;;62.43;23.70;;;;;7.40;101937.00;;;;9868222;30;20205;-78
2022/11/30 14:58:19;;;;;;;57.30;22.80;;;;;7.30;101948.00;;;;9837916;30;20230;-78
2022/11/30 15:03:25;;;;;;;59.23;23.10;;;;;7.20;101953.00;;;;9835088;30;20318;-78
2022/11/30 15:08:48;;;;;;;59.73;25.23;;;;;7.10;101956.00;;;;9866571;30;20189;-78
2022/11/30 15:13:54;;;;;;;61.03;23.50;;;;;7.10;101953.00;;;;9865845;30;20224;-78
2022/11/30 15:18:57;;;;;;;59.53;25.73;;;;;7.00;101950.00;;;;9849537;30;20209;-78
2022/11/30 15:24:00;;;;;;;60.13;25.87;;;;;7.00;101947.00;;;;9865255;30;20262;-78
2022/11/30 15:29:08;;;;;;;71.03;26.07;;;;;6.80;101945.00;;;;9838345;30;20195;-77
2022/11/30 15:34:25;;;;;;;69.57;27.93;;;;;6.70;101941.00;;;;9835227;30;20192;-78
2022/11/30 15:39:28;;;;;;;69.90;28.03;;;;;6.60;101947.00;;;;9867922;30;20208;-78
2022/11/30 15:44:37;;;;;;;69.43;26.47;;;;;6.50;101942.00;;;;9861104;30;20314;-78
2022/11/30 15:49:50;;;;;;;68.90;27.60;;;;;6.50;101943.00;;;;9870055;30;20223;-78
2022/11/30 15:54:58;;;;;;;75.73;27.43;;;;;6.40;101949.00;;;;9867469;30;20249;-78
2022/11/30 16:00:12;;;;;;;69.27;27.07;;;;;6.40;101952.00;;;;9833125;30;20286;-78
2022/11/30 16:05:14;;;;;;;69.03;27.67;;;;;6.30;101948.00;;;;9876943;30;20664;-78
2022/11/30 16:10:20;;;;;;;74.90;27.67;;;;;6.30;101952.00;;;;9860868;30;20199;-78
2022/11/30 16:15:29;;;;;;;75.77;28.87;;;;;6.30;101951.00;;;;9864442;30;20299;-78
2022/11/30 16:20:31;;;;;;;67.50;28.77;;;;;6.20;101944.00;;;;9864738;30;20669;-78
2022/11/30 16:25:33;;;;;;;68.70;26.23;;;;;6.20;101950.00;;;;9860002;30;20716;-78
2022/11/30 16:30:35;;;;;;;68.83;27.90;;;;;6.10;101959.00;;;;9864452;30;20199;-77
2022/11/30 16:35:43;;;;;;;68.53;25.57;;;;;6.10;101956.00;;;;9864957;30;20254;-78
2022/11/30 16:40:45;;;;;;;77.07;28.37;;;;;6.10;101965.00;;;;9863125;30;20706;-77
2022/11/30 16:45:49;;;;;;;81.53;29.53;;;;;6.10;101969.00;;;;9864302;30;20208;-78
2022/11/30 16:50:51;;;;;;;67.00;26.23;;;;;6.10;101986.00;;;;9848320;30;20200;-78
2022/11/30 16:55:53;;;;;;;74.40;27.90;;;;;6.20;101980.00;;;;9835176;30;20565;-77
2022/11/30 17:00:55;;;;;;;74.23;29.67;;;;;6.20;101991.00;;;;9866785;30;20570;-78
2022/11/30 17:05:57;;;;;;;76.93;26.67;;;;;6.30;101991.00;;;;9852090;30;20208;-78
2022/11/30 17:10:59;;;;;;;77.63;28.77;;;;;6.30;101996.00;;;;9866926;30;20197;-78
2022/11/30 17:16:01;;;;;;;81.77;32.33;;;;;6.30;101980.00;;;;9852682;30;20208;-78
2022/11/30 17:21:03;;;;;;;76.60;28.37;;;;;6.30;101988.00;;;;9867621;30;20223;-78
2022/11/30 17:26:05;;;;;;;81.97;30.30;;;;;6.30;101989.00;;;;9815256;30;20671;-78
2022/11/30 17:31:09;;;;;;;82.07;31.97;;;;;6.40;101982.00;;;;9863898;30;20204;-78
2022/11/30 17:36:13;;;;;;;71.10;29.40;;;;;6.30;101983.00;;;;9836310;30;20220;-78
2022/11/30 17:41:17;;;;;;;62.60;27.13;;;;;6.20;101985.00;;;;9866229;30;20192;-78
2022/11/30 17:46:21;;;;;;;69.77;29.33;;;;;6.00;101986.00;;;;9864728;30;20191;-78
2022/11/30 17:51:23;;;;;;;67.37;27.37;;;;;5.90;101990.00;;;;9864558;30;20243;-78
2022/11/30 17:56:25;;;;;;;64.40;27.83;;;;;5.70;101998.00;;;;9864821;30;20669;-77
2022/11/30 18:01:27;;;;;;;73.20;29.13;;;;;5.50;101994.00;;;;9879427;30;20600;-78
2022/11/30 18:06:29;;;;;;;89.77;31.00;;;;;5.40;101995.00;;;;9866031;30;20224;-77
2022/11/30 18:11:32;;;;;;;63.30;26.87;;;;;5.30;101990.00;;;;9864721;30;20208;-78
2022/11/30 18:16:35;;;;;;;76.70;28.37;;;;;5.30;101998.00;;;;9835272;30;20231;-78
2022/11/30 18:21:40;;;;;;;73.67;28.50;;;;;5.20;102010.00;;;;9849699;30;20208;-77
2022/11/30 18:26:41;;;;;;;65.63;27.93;;;;;5.20;102013.00;;;;9864925;30;20207;-78
2022/11/30 18:31:43;;;;;;;71.27;28.27;;;;;5.10;102011.00;;;;9839400;30;20235;-77
2022/11/30 18:36:45;;;;;;;74.80;29.00;;;;;5.10;102008.00;;;;9854467;30;20204;-77
2022/11/30 18:41:47;;;;;;;75.00;29.50;;;;;5.00;102011.00;;;;9849683;30;20205;-77
2022/11/30 18:46:49;;;;;;;74.37;28.37;;;;;4.90;102018.00;;;;9834916;30;20250;-78
2022/11/30 18:51:51;;;;;;;78.10;29.97;;;;;4.80;102030.00;;;;9849566;30;20197;-78
2022/11/30 18:56:53;;;;;;;76.47;28.93;;;;;4.70;102026.00;;;;9849175;30;20299;-78
2022/11/30 19:01:56;;;;;;;80.10;30.90;;;;;4.60;102022.00;;;;9863874;30;20224;-77
2022/11/30 19:06:58;;;;;;;73.23;27.23;;;;;4.50;102025.00;;;;9863652;30;20189;-78
2022/11/30 19:12:00;;;;;;;73.90;29.67;;;;;4.40;102031.00;;;;9863883;30;20197;-77
2022/11/30 19:17:01;;;;;;;82.00;31.70;;;;;4.30;102032.00;;;;9885115;30;20219;-77
2022/11/30 19:22:03;;;;;;;79.20;30.10;;;;;4.10;102027.00;;;;9848417;30;20296;-77
2022/11/30 19:27:05;;;;;;;79.47;29.53;;;;;3.90;102020.00;;;;9833077;30;20197;-77
2022/11/30 19:32:07;;;;;;;70.93;29.97;;;;;3.80;102025.00;;;;9818300;30;20209;-77
2022/11/30 19:37:09;;;;;;;76.03;30.97;;;;;3.70;102036.00;;;;9863152;30;20254;-78
2022/11/30 19:42:11;;;;;;;68.20;30.03;;;;;3.70;102024.00;;;;9869709;30;20209;-78
2022/11/30 19:47:12;;;;;;;77.23;29.53;;;;;3.80;102039.00;;;;9871045;30;20224;-78
2022/11/30 19:52:14;;;;;;;74.37;30.03;;;;;3.70;102036.00;;;;9869581;30;20208;-78
2022/11/30 19:57:16;;;;;;;64.20;30.00;;;;;3.80;102038.00;;;;9870341;30;20223;-78
2022/11/30 20:02:18;;;;;;;76.53;30.90;;;;;3.80;102052.00;;;;9870283;30;20651;-77
2022/11/30 20:07:20;;;;;;;68.17;29.00;;;;;4.10;102063.00;;;;9869600;30;20614;-78
2022/11/30 20:12:22;;;;;;;72.73;32.23;;;;;4.30;102072.00;;;;9870000;30;20283;-78
2022/11/30 20:17:24;;;;;;;65.13;31.40;;;;;4.40;102083.00;;;;9870122;30;20227;-78
2022/11/30 20:22:26;;;;;;;66.63;30.63;;;;;4.50;102095.00;;;;9868376;30;20215;-78
2022/11/30 20:27:28;;;;;;;76.13;30.57;;;;;4.70;102092.00;;;;9867702;30;20595;-78
2022/11/30 20:32:30;;;;;;;67.90;30.67;;;;;4.80;102083.00;;;;9873655;30;20201;-78
2022/11/30 20:37:32;;;;;;;60.20;26.67;;;;;4.90;102080.00;;;;9865060;30;20853;-78
2022/11/30 20:42:33;;;;;;;60.97;27.43;;;;;5.00;102077.00;;;;9868961;30;20197;-78
2022/11/30 20:47:35;;;;;;;62.30;27.10;;;;;5.00;102077.00;;;;9852905;30;20623;-78
2022/11/30 20:52:37;;;;;;;56.67;25.07;;;;;5.00;102066.00;;;;9852916;30;20200;-78
2022/11/30 20:57:39;;;;;;;54.17;25.63;;;;;5.10;102077.00;;;;9867080;30;20239;-78
2022/11/30 21:02:41;;;;;;;50.60;23.87;;;;;5.10;102074.00;;;;9851026;30;20636;-78
2022/11/30 21:07:44;;;;;;;54.67;25.80;;;;;5.20;102074.00;;;;9881908;30;20193;-78
2022/11/30 21:12:46;;;;;;;54.83;22.97;;;;;5.20;102075.00;;;;9837389;30;20224;-78
2022/11/30 21:17:48;;;;;;;47.77;23.53;;;;;5.20;102074.00;;;;9837624;30;20208;-78
2022/11/30 21:22:50;;;;;;;49.60;24.57;;;;;5.30;102083.00;;;;9844214;30;20206;-78
2022/11/30 21:27:52;;;;;;;47.40;23.73;;;;;5.30;102087.00;;;;9830302;30;20545;-78
2022/11/30 21:32:54;;;;;;;50.83;23.10;;;;;5.30;102078.00;;;;9829121;30;20236;-77
2022/11/30 21:37:56;;;;;;;49.67;22.33;;;;;5.30;102090.00;;;;9878951;29;20208;-78
2022/11/30 21:42:58;;;;;;;52.53;23.57;;;;;5.30;102082.00;;;;9866454;30;20719;-78
2022/11/30 21:48:00;;;;;;;47.03;23.93;;;;;5.30;102095.00;;;;9814322;30;20208;-78
2022/11/30 21:53:01;;;;;;;46.67;22.70;;;;;5.20;102094.00;;;;9814318;30;20208;-78
2022/11/30 21:58:03;;;;;;;51.63;24.93;;;;;5.20;102085.00;;;;9851113;30;20212;-78
2022/11/30 22:03:05;;;;;;;44.27;22.57;;;;;5.10;102095.00;;;;9880072;29;20596;-78
2022/11/30 22:08:07;;;;;;;47.30;22.33;;;;;5.10;102103.00;;;;9839251;30;20212;-78
2022/11/30 22:13:09;;;;;;;47.47;24.27;;;;;5.10;102107.00;;;;9865078;30;20197;-78
2022/11/30 22:18:11;;;;;;;41.20;22.80;;;;;5.00;102088.00;;;;9865051;30;20307;-78
2022/11/30 22:23:13;;;;;;;47.10;21.40;;;;;4.80;102092.00;;;;9842634;30;20201;-78
2022/11/30 22:28:14;;;;;;;44.13;22.33;;;;;4.60;102098.00;;;;9851857;30;20212;-78
2022/11/30 22:33:20;;;;;;;42.60;21.50;;;;;4.40;102100.00;;;;9866322;30;20200;-78
2022/11/30 22:38:22;;;;;;;45.33;21.83;;;;;4.30;102109.00;;;;9849863;30;20212;-77
2022/11/30 22:43:23;;;;;;;48.57;22.17;;;;;4.20;102102.00;;;;9865339;30;20745;-77
2022/11/30 22:48:28;;;;;;;48.27;22.53;;;;;4.20;102107.00;;;;9851029;30;20846;-77
2022/11/30 22:53:35;;;;;;;44.17;22.03;;;;;4.10;102101.00;;;;9871785;30;20204;-77
2022/11/30 22:58:37;;;;;;;48.77;22.47;;;;;4.10;102100.00;;;;9872163;30;20550;-77
2022/11/30 23:03:41;;;;;;;37.67;19.67;;;;;4.20;102101.00;;;;9855663;30;20236;-77
2022/11/30 23:08:44;;;;;;;49.67;22.37;;;;;4.30;102112.00;;;;9870736;30;20197;-77
2022/11/30 23:13:45;;;;;;;43.33;21.87;;;;;4.40;102121.00;;;;9870793;30;20200;-77
2022/11/30 23:18:53;;;;;;;51.40;21.13;;;;;4.60;102113.00;;;;9869986;30;20224;-77
2022/11/30 23:23:57;;;;;;;55.60;24.07;;;;;4.70;102118.00;;;;9870209;30;20204;-77
2022/11/30 23:29:01;;;;;;;44.03;21.67;;;;;4.80;102115.00;;;;9870777;30;20222;-77
2022/11/30 23:34:05;;;;;;;51.13;22.03;;;;;4.80;102105.00;;;;9884398;30;20212;-76
2022/11/30 23:39:11;;;;;;;49.50;21.37;;;;;4.80;102112.00;;;;9869364;30;20216;-77
2022/11/30 23:44:13;;;;;;;43.87;20.80;;;;;4.80;102103.00;;;;9870338;30;20200;-77
2022/11/30 23:49:14;;;;;;;42.33;21.30;;;;;4.80;102096.00;;;;9884355;30;20196;-77
2022/11/30 23:54:16;;;;;;;44.67;21.20;;;;;4.80;102097.00;;;;9884446;30;20197;-77
2022/11/30 23:59:18;;;;;;;44.20;20.93;;;;;4.80;102097.00;;;;9868596;30;20208;-77
